Terminal Aerodrome Forecast
Issued by NWS Atlanta, GA

Home | Current Version | Previous Version | Text Only | Print | Product List | Glossary On
Versions: 1 2 3 4 5 6 7 8 9 10 11 12 13 14 15 16 17 18 19 20 21 22 23 24 25 26 27 28 29 30 31 32 33 34 35 36 37 38 39 40 41 42 43
000
FTUS42 KFFC 260753 AAA
TAFATL
TAF AMD
KATL 260753Z 2608/2712 25007KT P6SM SCT025 BKN070
      TEMPO 2608/2610 -RA BKN025
     FM261000 28010KT P6SM -RA OVC015
     FM261500 31015G25KT P6SM BKN025
     FM261800 31016G26KT P6SM BKN050
     FM270000 31011KT P6SM SCT060 BKN120
     FM270900 30007KT P6SM BKN050=

USA.gov is the U.S. government's official web portal to all federal, state and local government web resources and services.